Time;durP1;ratioP1;P1;durP2;ratioP2;P2;SDS_P1;SDS_P2;PMS_P1;PMS_P2;Temp;Humidity;BMP_temperature;BMP_pressure;BME280_temperature;BME280_humidity;BME280_pressure;Samples;Min_cycle;Max_cycle;Signal;HPM_P1;HPM_P2
2022/04/11 00:01:18;;;;;;;0.00;0.00;;;;;;;;;;5057865;28;20514;-64
2022/04/11 00:03:44;;;;;;;0.10;0.10;;;;;;;;;;5057881;28;20051;-64
2022/04/11 00:06:09;;;;;;;0.10;0.10;;;;;;;;;;5057648;28;20061;-65
2022/04/11 00:08:35;;;;;;;0.10;0.10;;;;;;;;;;5057640;28;20085;-64
2022/04/11 00:11:01;;;;;;;0.20;0.20;;;;;;;;;;5057700;28;20039;-64
2022/04/11 00:13:26;;;;;;;0.10;0.10;;;;;;;;;;5057700;28;20452;-64
2022/04/11 00:15:51;;;;;;;0.10;0.10;;;;;;;;;;5057620;28;20036;-64
2022/04/11 00:18:17;;;;;;;0.10;0.10;;;;;;;;;;5057518;28;20064;-65
2022/04/11 00:20:42;;;;;;;0.10;0.10;;;;;;;;;;5074030;28;20039;-65
2022/04/11 00:23:08;;;;;;;0.10;0.10;;;;;;;;;;5074398;28;20032;-65
2022/04/11 00:25:34;;;;;;;0.10;0.10;;;;;;;;;;5057707;28;20036;-65
2022/04/11 00:28:00;;;;;;;0.10;0.10;;;;;;;;;;5074305;28;20081;-64
2022/04/11 00:30:26;;;;;;;0.70;0.70;;;;;;;;;;5074147;28;20039;-64
2022/04/11 00:32:51;;;;;;;0.10;0.10;;;;;;;;;;5092148;28;20497;-64
2022/04/11 00:35:16;;;;;;;0.20;0.20;;;;;;;;;;5092087;28;20032;-64
2022/04/11 00:37:42;;;;;;;0.10;0.10;;;;;;;;;;5073976;28;20036;-64
2022/04/11 00:40:09;;;;;;;0.10;0.10;;;;;;;;;;5074122;28;20032;-65
2022/04/11 00:42:34;;;;;;;0.10;0.10;;;;;;;;;;5074027;28;20039;-65
2022/04/11 00:45:00;;;;;;;0.10;0.10;;;;;;;;;;5074076;28;20032;-65
2022/04/11 00:47:26;;;;;;;0.10;0.10;;;;;;;;;;5074037;28;20028;-65
2022/04/11 00:49:56;;;;;;;0.10;0.10;;;;;;;;;;5057353;28;20089;-65
2022/04/11 00:52:21;;;;;;;0.50;0.50;;;;;;;;;;5092172;28;20095;-65
2022/04/11 00:54:47;;;;;;;0.10;0.10;;;;;;;;;;5074769;28;20578;-65
2022/04/11 00:57:15;;;;;;;0.10;0.10;;;;;;;;;;5077510;28;20032;-66
2022/04/11 00:59:41;;;;;;;0.95;0.95;;;;;;;;;;5095914;28;20462;-65
2022/04/11 01:02:07;;;;;;;0.10;0.10;;;;;;;;;;5077316;28;20032;-65
2022/04/11 01:04:34;;;;;;;0.10;0.10;;;;;;;;;;5060641;28;20035;-65
2022/04/11 01:07:00;;;;;;;0.10;0.10;;;;;;;;;;5095509;28;20027;-65
2022/04/11 01:09:26;;;;;;;0.10;0.10;;;;;;;;;;5060546;28;20115;-65
2022/04/11 01:11:52;;;;;;;0.00;0.00;;;;;;;;;;5077053;28;20081;-65
2022/04/11 01:14:17;;;;;;;0.10;0.10;;;;;;;;;;5077351;28;20031;-65
2022/04/11 01:16:50;;;;;;;0.77;0.77;;;;;;;;;;5060332;28;20494;-65
2022/04/11 01:19:16;;;;;;;0.00;0.00;;;;;;;;;;5076578;28;20028;-65
2022/04/11 01:21:45;;;;;;;0.10;0.10;;;;;;;;;;5060628;28;20422;-65
2022/04/11 01:24:11;;;;;;;0.10;0.10;;;;;;;;;;5077208;28;20048;-65
2022/04/11 01:26:37;;;;;;;0.10;0.10;;;;;;;;;;5077047;28;20051;-65
2022/04/11 01:29:04;;;;;;;0.10;0.10;;;;;;;;;;5060275;28;20555;-64
2022/04/11 01:31:31;;;;;;;0.10;0.10;;;;;;;;;;5060231;28;20032;-64
2022/04/11 01:33:57;;;;;;;0.10;0.10;;;;;;;;;;5076464;28;20081;-64
2022/04/11 01:36:22;;;;;;;0.10;0.10;;;;;;;;;;5076522;28;20040;-64
2022/04/11 01:38:48;;;;;;;0.10;0.10;;;;;;;;;;5094721;28;20040;-64
2022/04/11 01:41:13;;;;;;;0.10;0.10;;;;;;;;;;5094604;28;20044;-65
2022/04/11 01:43:39;;;;;;;0.10;0.10;;;;;;;;;;5094544;28;20038;-64
2022/04/11 01:46:05;;;;;;;0.10;0.10;;;;;;;;;;5076395;28;20040;-65
2022/04/11 01:48:41;;;;;;;0.10;0.10;;;;;;;;;;5078294;28;20030;-64
2022/04/11 01:51:07;;;;;;;0.10;0.10;;;;;;;;;;5060175;28;20372;-65
2022/04/11 01:53:33;;;;;;;0.10;0.10;;;;;;;;;;5059942;28;20094;-65
2022/04/11 01:55:59;;;;;;;0.10;0.10;;;;;;;;;;5059912;28;20131;-64
2022/04/11 01:58:24;;;;;;;0.10;0.10;;;;;;;;;;5059764;28;20040;-65
2022/04/11 02:00:50;;;;;;;0.00;0.00;;;;;;;;;;5059784;28;20039;-64
2022/04/11 02:03:15;;;;;;;0.10;0.10;;;;;;;;;;5059521;28;20038;-65
2022/04/11 02:05:42;;;;;;;0.10;0.10;;;;;;;;;;5059748;28;20115;-65
2022/04/11 02:08:10;;;;;;;0.10;0.10;;;;;;;;;;5059802;28;20039;-64
2022/04/11 02:10:39;;;;;;;0.10;0.10;;;;;;;;;;5059566;28;20112;-65
2022/04/11 02:13:05;;;;;;;0.10;0.10;;;;;;;;;;5059432;28;20127;-65
2022/04/11 02:15:31;;;;;;;0.10;0.10;;;;;;;;;;5059452;28;20032;-65
2022/04/11 02:17:56;;;;;;;0.10;0.10;;;;;;;;;;5075895;28;20028;-64
2022/04/11 02:20:22;;;;;;;0.00;0.00;;;;;;;;;;5059526;28;20024;-65
2022/04/11 02:22:52;;;;;;;0.30;0.30;;;;;;;;;;5076112;28;20480;-66
2022/04/11 02:25:17;;;;;;;;;;;;;;;;;;5076529;28;20090;-66
2022/04/11 02:27:44;;;;;;;0.10;0.10;;;;;;;;;;5076068;28;20304;-66
2022/04/11 02:30:11;;;;;;;0.10;0.10;;;;;;;;;;5094010;28;20051;-66
2022/04/11 02:32:37;;;;;;;0.10;0.10;;;;;;;;;;5075617;28;20572;-64
2022/04/11 02:35:03;;;;;;;0.10;0.10;;;;;;;;;;5058834;28;20158;-64
2022/04/11 02:37:28;;;;;;;0.10;0.10;;;;;;;;;;5059019;28;20059;-64
2022/04/11 02:39:54;;;;;;;0.10;0.10;;;;;;;;;;5075700;28;20128;-66
2022/04/11 02:42:24;;;;;;;0.32;0.32;;;;;;;;;;5058886;28;20032;-65
2022/04/11 02:44:53;;;;;;;0.10;0.10;;;;;;;;;;5059479;28;20410;-66
2022/04/11 02:47:19;;;;;;;0.10;0.10;;;;;;;;;;5059372;28;20038;-64
2022/04/11 02:49:46;;;;;;;0.00;0.00;;;;;;;;;;5076012;28;20050;-64
2022/04/11 02:52:32;;;;;;;0.75;0.75;;;;;;;;;;5077680;28;20131;-63
2022/04/11 02:54:58;;;;;;;1.38;1.38;;;;;;;;;;5058782;28;20043;-65
2022/04/11 02:57:24;;;;;;;0.10;0.10;;;;;;;;;;5058909;28;20109;-65
2022/04/11 02:59:51;;;;;;;0.10;0.10;;;;;;;;;;5058682;28;20044;-65
2022/04/11 03:02:16;;;;;;;0.10;0.10;;;;;;;;;;5069773;28;20082;-66
2022/04/11 03:04:42;;;;;;;0.10;0.10;;;;;;;;;;5067522;28;20032;-65
2022/04/11 03:07:13;;;;;;;0.10;0.10;;;;;;;;;;5052826;28;20035;-66
2022/04/11 03:09:39;;;;;;;0.10;0.10;;;;;;;;;;5054446;28;20437;-65
2022/04/11 03:12:05;;;;;;;0.10;0.10;;;;;;;;;;5071471;28;20052;-66
2022/04/11 03:14:32;;;;;;;0.00;0.00;;;;;;;;;;5069464;28;20036;-62
2022/04/11 03:16:58;;;;;;;0.10;0.10;;;;;;;;;;5051230;28;20439;-64
2022/04/11 03:19:25;;;;;;;0.10;0.10;;;;;;;;;;5034189;28;20067;-64
2022/04/11 03:21:50;;;;;;;0.10;0.10;;;;;;;;;;5051191;28;20423;-65
2022/04/11 03:24:16;;;;;;;0.10;0.10;;;;;;;;;;5032309;28;20052;-65
2022/04/11 03:26:43;;;;;;;0.10;0.10;;;;;;;;;;5032346;28;20123;-66
2022/04/11 03:29:15;;;;;;;0.10;0.10;;;;;;;;;;5048957;28;20028;-66
2022/04/11 03:31:41;;;;;;;0.10;0.10;;;;;;;;;;5031920;28;20032;-65
2022/04/11 03:34:09;;;;;;;0.10;0.10;;;;;;;;;;5049260;28;20067;-65
2022/04/11 03:36:35;;;;;;;0.25;0.25;;;;;;;;;;5066343;28;20028;-67
2022/04/11 03:39:01;;;;;;;0.05;0.05;;;;;;;;;;5032122;28;20494;-65
2022/04/11 03:41:30;;;;;;;0.25;0.25;;;;;;;;;;5059124;28;20032;-69
2022/04/11 03:44:07;;;;;;;0.00;0.00;;;;;;;;;;5048222;28;20037;-67
2022/04/11 03:46:32;;;;;;;0.10;0.10;;;;;;;;;;5032112;28;20644;-66
2022/04/11 03:48:58;;;;;;;0.10;0.10;;;;;;;;;;5048006;28;20694;-65
2022/04/11 03:51:24;;;;;;;0.10;0.10;;;;;;;;;;5048248;28;20036;-63
2022/04/11 03:53:50;;;;;;;0.10;0.10;;;;;;;;;;5049804;28;20044;-67
2022/04/11 03:56:17;;;;;;;0.00;0.00;;;;;;;;;;5058228;28;20430;-67
2022/04/11 03:58:44;;;;;;;0.10;0.10;;;;;;;;;;5065304;28;20043;-65
2022/04/11 04:01:10;;;;;;;0.10;0.10;;;;;;;;;;5061436;28;20399;-64
2022/04/11 04:03:36;;;;;;;0.10;0.10;;;;;;;;;;5036636;28;20067;-65
2022/04/11 04:06:07;;;;;;;0.10;0.10;;;;;;;;;;5058852;28;20035;-67
2022/04/11 04:08:37;;;;;;;;;;;;;;;;;;5048750;28;20075;-65
2022/04/11 04:11:14;;;;;;;0.10;0.10;;;;;;;;;;5032959;28;20320;-66
2022/04/11 04:13:46;;;;;;;0.10;0.10;;;;;;;;;;5049965;28;20033;-65
2022/04/11 04:16:12;;;;;;;0.00;0.00;;;;;;;;;;5067917;28;20036;-64
2022/04/11 04:18:40;;;;;;;0.10;0.10;;;;;;;;;;5049933;28;20028;-65
2022/04/11 04:21:08;;;;;;;0.10;0.10;;;;;;;;;;5049905;28;20065;-65
2022/04/11 04:23:34;;;;;;;0.10;0.10;;;;;;;;;;5049251;28;20392;-65
2022/04/11 04:25:59;;;;;;;0.10;0.10;;;;;;;;;;5049917;28;20029;-63
2022/04/11 04:28:25;;;;;;;0.10;0.10;;;;;;;;;;5033611;28;20051;-64
2022/04/11 04:30:52;;;;;;;0.10;0.10;;;;;;;;;;5036338;28;20048;-64
2022/04/11 04:33:18;;;;;;;0.10;0.10;;;;;;;;;;5053631;28;20040;-65
2022/04/11 04:35:47;;;;;;;0.10;0.10;;;;;;;;;;5053297;28;20051;-64
2022/04/11 04:38:13;;;;;;;0.00;0.00;;;;;;;;;;5036586;28;20270;-64
2022/04/11 04:40:46;;;;;;;0.10;0.10;;;;;;;;;;5037315;28;20056;-65
2022/04/11 04:43:14;;;;;;;0.10;0.10;;;;;;;;;;5037111;28;20044;-66
2022/04/11 04:45:40;;;;;;;0.10;0.10;;;;;;;;;;5053135;28;20029;-64
2022/04/11 04:48:28;;;;;;;0.10;0.10;;;;;;;;;;5055862;28;20089;-64
2022/04/11 04:50:56;;;;;;;0.10;0.10;;;;;;;;;;5053354;28;20036;-64
2022/04/11 04:53:22;;;;;;;0.17;0.17;;;;;;;;;;5036755;28;20032;-65
2022/04/11 04:55:51;;;;;;;0.10;0.10;;;;;;;;;;5053579;28;20040;-64
2022/04/11 04:58:16;;;;;;;0.10;0.10;;;;;;;;;;5070945;28;20066;-63
2022/04/11 05:00:43;;;;;;;0.10;0.10;;;;;;;;;;5052848;28;20029;-64
2022/04/11 05:03:15;;;;;;;16.05;9.32;;;;;;;;;;5053034;28;20033;-62
2022/04/11 05:05:40;;;;;;;0.10;0.10;;;;;;;;;;5052683;28;20032;-63
2022/04/11 05:08:06;;;;;;;0.10;0.10;;;;;;;;;;5071926;28;20031;-66
2022/04/11 05:10:34;;;;;;;0.25;0.25;;;;;;;;;;5047649;28;20056;-63
2022/04/11 05:13:00;;;;;;;0.10;0.10;;;;;;;;;;5056342;28;20443;-65
2022/04/11 05:15:27;;;;;;;0.10;0.10;;;;;;;;;;5052808;28;20039;-66
2022/04/11 05:17:58;;;;;;;0.10;0.10;;;;;;;;;;5058276;28;20040;-65
2022/04/11 05:20:26;;;;;;;0.10;0.10;;;;;;;;;;5052290;28;20540;-61
2022/04/11 05:22:51;;;;;;;0.10;0.10;;;;;;;;;;5079330;28;20047;-59
2022/04/11 05:25:18;;;;;;;3.13;3.03;;;;;;;;;;5084816;28;20035;-61
2022/04/11 05:27:43;;;;;;;0.20;0.20;;;;;;;;;;5088870;28;20035;-63
2022/04/11 05:30:10;;;;;;;0.10;0.10;;;;;;;;;;5051156;28;20043;-61
2022/04/11 05:32:36;;;;;;;0.10;0.10;;;;;;;;;;5066031;28;20044;-60
2022/04/11 05:35:03;;;;;;;0.63;0.63;;;;;;;;;;5087378;28;20430;-60
2022/04/11 05:37:29;;;;;;;0.10;0.10;;;;;;;;;;5042527;28;20089;-60
2022/04/11 05:39:54;;;;;;;0.10;0.10;;;;;;;;;;5078138;28;20028;-60
2022/04/11 05:42:23;;;;;;;0.10;0.10;;;;;;;;;;5076493;28;20048;-60
2022/04/11 05:44:49;;;;;;;0.10;0.10;;;;;;;;;;5050313;28;20356;-62
2022/04/11 05:47:15;;;;;;;0.10;0.10;;;;;;;;;;5072278;28;20040;-60
2022/04/11 05:49:47;;;;;;;0.10;0.10;;;;;;;;;;5055420;28;20361;-61
2022/04/11 05:52:13;;;;;;;0.10;0.10;;;;;;;;;;5074270;28;20039;-60
2022/04/11 05:54:38;;;;;;;0.10;0.10;;;;;;;;;;5069607;28;20172;-61
2022/04/11 05:57:04;;;;;;;0.10;0.10;;;;;;;;;;5052891;28;20116;-60
2022/04/11 05:59:29;;;;;;;0.03;0.03;;;;;;;;;;5069179;28;20444;-59
2022/04/11 06:01:56;;;;;;;0.10;0.10;;;;;;;;;;5069623;28;20080;-61
2022/04/11 06:04:22;;;;;;;0.10;0.10;;;;;;;;;;5049750;28;20033;-60
2022/04/11 06:06:47;;;;;;;0.10;0.10;;;;;;;;;;5068158;28;20059;-61
2022/04/11 06:09:13;;;;;;;0.10;0.10;;;;;;;;;;5050021;28;20039;-60
2022/04/11 06:11:40;;;;;;;0.10;0.10;;;;;;;;;;5049501;28;20024;-60
2022/04/11 06:14:06;;;;;;;0.10;0.10;;;;;;;;;;5049879;28;20043;-60
2022/04/11 06:16:32;;;;;;;0.10;0.10;;;;;;;;;;5062990;28;20039;-60
2022/04/11 06:18:58;;;;;;;0.10;0.10;;;;;;;;;;5088258;28;20040;-59
2022/04/11 06:21:23;;;;;;;0.10;0.10;;;;;;;;;;5070080;28;20154;-60
2022/04/11 06:23:49;;;;;;;0.10;0.10;;;;;;;;;;5087697;28;20123;-60
2022/04/11 06:26:17;;;;;;;0.20;0.20;;;;;;;;;;5060873;28;20036;-60
2022/04/11 06:28:45;;;;;;;0.10;0.10;;;;;;;;;;5042846;28;20044;-60
2022/04/11 06:31:11;;;;;;;0.10;0.10;;;;;;;;;;5057445;28;20097;-58
2022/04/11 06:33:38;;;;;;;0.20;0.20;;;;;;;;;;5058502;28;20028;-61
2022/04/11 06:36:05;;;;;;;0.10;0.10;;;;;;;;;;5049275;28;20040;-60
2022/04/11 06:38:31;;;;;;;0.10;0.10;;;;;;;;;;5067530;28;20480;-60
2022/04/11 06:40:56;;;;;;;0.10;0.10;;;;;;;;;;5049714;28;20028;-59
2022/04/11 06:43:23;;;;;;;0.10;0.10;;;;;;;;;;5049281;28;20063;-60
2022/04/11 06:45:58;;;;;;;0.17;0.17;;;;;;;;;;5049603;28;20032;-60
2022/04/11 06:48:25;;;;;;;0.10;0.10;;;;;;;;;;5048852;28;20373;-59
2022/04/11 06:50:51;;;;;;;0.35;0.35;;;;;;;;;;5049287;28;20047;-60
2022/04/11 06:53:16;;;;;;;0.20;0.20;;;;;;;;;;5066395;28;20040;-60
2022/04/11 06:55:47;;;;;;;0.20;0.20;;;;;;;;;;5067306;28;20032;-60
2022/04/11 06:58:13;;;;;;;0.15;0.15;;;;;;;;;;5067104;28;20044;-61
2022/04/11 07:00:38;;;;;;;0.10;0.10;;;;;;;;;;5067555;28;20392;-60
2022/04/11 07:03:04;;;;;;;1.15;0.73;;;;;;;;;;5082689;28;20122;-61
2022/04/11 07:05:29;;;;;;;0.17;0.17;;;;;;;;;;5076329;28;20048;-60
2022/04/11 07:07:55;;;;;;;0.20;0.20;;;;;;;;;;5072878;28;20411;-60
2022/04/11 07:10:20;;;;;;;0.20;0.20;;;;;;;;;;5067255;28;20039;-60
2022/04/11 07:12:46;;;;;;;0.10;0.10;;;;;;;;;;5066858;28;20079;-59
2022/04/11 07:15:11;;;;;;;0.20;0.20;;;;;;;;;;5066941;28;20047;-60
2022/04/11 07:17:37;;;;;;;0.30;0.30;;;;;;;;;;5084173;28;20040;-60
2022/04/11 07:20:02;;;;;;;0.20;0.20;;;;;;;;;;5068463;28;20037;-60
2022/04/11 07:22:28;;;;;;;0.10;0.10;;;;;;;;;;5066481;28;20469;-61
2022/04/11 07:24:53;;;;;;;0.50;0.50;;;;;;;;;;5066231;28;20454;-59
2022/04/11 07:27:19;;;;;;;0.20;0.20;;;;;;;;;;5066714;28;20036;-60
2022/04/11 07:29:44;;;;;;;0.30;0.30;;;;;;;;;;5050536;28;20405;-60
2022/04/11 07:32:10;;;;;;;0.20;0.20;;;;;;;;;;5076427;28;20048;-60
2022/04/11 07:34:35;;;;;;;0.20;0.20;;;;;;;;;;5072690;28;20025;-60
2022/04/11 07:37:01;;;;;;;5.90;1.60;;;;;;;;;;5064836;28;20036;-59
2022/04/11 07:39:28;;;;;;;0.30;0.30;;;;;;;;;;5078066;28;20024;-58
2022/04/11 07:41:54;;;;;;;0.20;0.20;;;;;;;;;;5073509;28;20092;-58
2022/04/11 07:44:19;;;;;;;0.20;0.20;;;;;;;;;;5072553;28;20032;-58
2022/04/11 07:46:45;;;;;;;0.20;0.20;;;;;;;;;;5070660;28;20040;-60
2022/04/11 07:49:10;;;;;;;0.20;0.20;;;;;;;;;;5084006;28;20060;-58
2022/04/11 07:51:36;;;;;;;0.20;0.20;;;;;;;;;;5086514;28;20040;-60
2022/04/11 07:54:01;;;;;;;0.20;0.20;;;;;;;;;;5086726;28;20036;-61
2022/04/11 07:56:28;;;;;;;0.10;0.10;;;;;;;;;;5086115;28;20040;-58
2022/04/11 07:58:55;;;;;;;0.20;0.20;;;;;;;;;;5067947;28;20040;-60
2022/04/11 08:01:21;;;;;;;0.40;0.40;;;;;;;;;;5068567;28;20047;-60
2022/04/11 08:03:47;;;;;;;0.20;0.20;;;;;;;;;;5061117;28;20028;-59
2022/04/11 08:06:13;;;;;;;0.20;0.20;;;;;;;;;;5076193;28;20036;-60
2022/04/11 08:08:44;;;;;;;0.30;0.30;;;;;;;;;;5079904;28;20092;-60
2022/04/11 08:11:13;;;;;;;0.15;0.15;;;;;;;;;;5085729;28;20039;-59
2022/04/11 08:13:39;;;;;;;0.20;0.20;;;;;;;;;;5086599;28;20047;-60
2022/04/11 08:16:05;;;;;;;0.20;0.20;;;;;;;;;;5086468;28;20040;-60
2022/04/11 08:18:30;;;;;;;0.20;0.20;;;;;;;;;;5086847;28;20111;-60
2022/04/11 08:20:56;;;;;;;0.20;0.20;;;;;;;;;;5086139;28;20117;-60
2022/04/11 08:23:21;;;;;;;0.30;0.30;;;;;;;;;;5086366;28;20024;-60
2022/04/11 08:25:47;;;;;;;0.20;0.20;;;;;;;;;;5086113;28;20036;-60
2022/04/11 08:28:13;;;;;;;0.20;0.20;;;;;;;;;;5067918;28;20038;-61
2022/04/11 08:30:38;;;;;;;0.85;0.85;;;;;;;;;;5068015;28;20403;-60
2022/04/11 08:33:03;;;;;;;0.20;0.20;;;;;;;;;;5069235;28;20507;-59
2022/04/11 08:35:29;;;;;;;0.20;0.20;;;;;;;;;;5068203;28;20094;-59
2022/04/11 08:37:54;;;;;;;0.88;0.50;;;;;;;;;;5067607;28;20033;-59
2022/04/11 08:40:20;;;;;;;0.20;0.20;;;;;;;;;;5067616;28;20044;-59
2022/04/11 08:42:46;;;;;;;0.10;0.10;;;;;;;;;;5068236;28;20035;-59
2022/04/11 08:45:15;;;;;;;0.20;0.20;;;;;;;;;;5068063;28;20142;-59
2022/04/11 08:47:41;;;;;;;0.15;0.15;;;;;;;;;;5050290;28;20048;-59
2022/04/11 08:50:07;;;;;;;0.73;0.73;;;;;;;;;;5067932;28;20029;-60
2022/04/11 08:52:34;;;;;;;0.20;0.20;;;;;;;;;;5067722;28;20045;-60
2022/04/11 08:55:00;;;;;;;0.10;0.10;;;;;;;;;;5067601;28;20504;-59
2022/04/11 08:57:26;;;;;;;0.20;0.20;;;;;;;;;;5066914;28;20113;-59
2022/04/11 08:59:51;;;;;;;0.22;0.22;;;;;;;;;;5067216;28;20119;-60
2022/04/11 09:02:18;;;;;;;0.63;0.45;;;;;;;;;;5066764;28;20036;-60
2022/04/11 09:04:49;;;;;;;0.13;0.13;;;;;;;;;;5067021;28;20442;-60
2022/04/11 09:07:15;;;;;;;0.32;0.20;;;;;;;;;;5066808;28;20052;-59
2022/04/11 09:09:40;;;;;;;0.17;0.17;;;;;;;;;;5066504;28;20483;-59
2022/04/11 09:12:08;;;;;;;0.10;0.10;;;;;;;;;;5067041;28;20035;-60
2022/04/11 09:14:35;;;;;;;0.10;0.10;;;;;;;;;;5049464;28;20058;-58
2022/04/11 09:17:00;;;;;;;0.10;0.10;;;;;;;;;;5069650;28;20047;-59
2022/04/11 09:19:29;;;;;;;0.10;0.10;;;;;;;;;;5052807;28;20036;-59
2022/04/11 09:21:54;;;;;;;0.15;0.13;;;;;;;;;;5071024;28;20099;-59
2022/04/11 09:24:21;;;;;;;0.10;0.10;;;;;;;;;;5070573;28;20119;-59
2022/04/11 09:26:47;;;;;;;0.10;0.10;;;;;;;;;;5070813;28;20432;-59
2022/04/11 09:29:15;;;;;;;0.38;0.28;;;;;;;;;;5071089;28;20052;-60
2022/04/11 09:31:41;;;;;;;0.10;0.10;;;;;;;;;;5070270;28;20028;-60
2022/04/11 09:34:15;;;;;;;0.10;0.10;;;;;;;;;;5070330;28;20069;-60
2022/04/11 09:36:47;;;;;;;0.10;0.10;;;;;;;;;;5070611;28;20406;-61
2022/04/11 09:39:12;;;;;;;0.10;0.10;;;;;;;;;;5071014;28;20037;-61
2022/04/11 09:41:46;;;;;;;0.10;0.10;;;;;;;;;;5070761;28;20028;-59
2022/04/11 09:44:21;;;;;;;0.10;0.10;;;;;;;;;;5070596;28;20040;-60
2022/04/11 09:46:47;;;;;;;0.20;0.20;;;;;;;;;;5070910;28;20161;-59
2022/04/11 09:49:13;;;;;;;0.20;0.20;;;;;;;;;;5070631;28;20494;-60
2022/04/11 09:51:57;;;;;;;0.10;0.10;;;;;;;;;;5070363;28;20052;-60
2022/04/11 09:54:26;;;;;;;0.20;0.20;;;;;;;;;;5070191;28;20059;-60
2022/04/11 09:56:53;;;;;;;0.10;0.10;;;;;;;;;;5070439;28;20029;-60
2022/04/11 09:59:19;;;;;;;0.10;0.10;;;;;;;;;;5070719;28;20469;-58
2022/04/11 10:01:44;;;;;;;0.10;0.10;;;;;;;;;;5070280;28;20033;-58
2022/04/11 10:04:10;;;;;;;0.20;0.20;;;;;;;;;;5069611;28;20094;-61
2022/04/11 10:06:36;;;;;;;0.13;0.13;;;;;;;;;;5070366;28;20036;-60
2022/04/11 10:09:02;;;;;;;0.22;0.22;;;;;;;;;;5052399;28;20024;-60
2022/04/11 10:11:28;;;;;;;0.20;0.20;;;;;;;;;;5070284;28;20052;-58
2022/04/11 10:13:55;;;;;;;0.20;0.20;;;;;;;;;;5069671;28;20499;-60
2022/04/11 10:16:21;;;;;;;0.25;0.25;;;;;;;;;;5070126;28;20032;-59
2022/04/11 10:18:47;;;;;;;0.20;0.20;;;;;;;;;;5051880;28;20418;-60
2022/04/11 10:21:13;;;;;;;0.22;0.22;;;;;;;;;;5052230;28;20031;-60
2022/04/11 10:23:38;;;;;;;0.30;0.30;;;;;;;;;;5051779;28;20396;-59
2022/04/11 10:26:15;;;;;;;0.20;0.20;;;;;;;;;;5052214;28;20024;-60
2022/04/11 10:28:46;;;;;;;0.20;0.20;;;;;;;;;;5068594;28;20104;-59
2022/04/11 10:31:12;;;;;;;0.28;0.28;;;;;;;;;;5069741;28;20032;-60
2022/04/11 10:33:48;;;;;;;0.20;0.20;;;;;;;;;;5069832;28;20040;-59
2022/04/11 10:36:43;;;;;;;0.20;0.20;;;;;;;;;;5069732;28;20028;-61
2022/04/11 10:39:11;;;;;;;0.50;0.50;;;;;;;;;;5052375;28;20037;-57
2022/04/11 10:41:58;;;;;;;0.30;0.30;;;;;;;;;;5069202;28;20033;-59
2022/04/11 10:44:31;;;;;;;0.20;0.20;;;;;;;;;;5076735;28;20046;-58
2022/04/11 10:47:22;;;;;;;0.20;0.20;;;;;;;;;;5080016;28;20028;-60
2022/04/11 10:49:48;;;;;;;0.40;0.40;;;;;;;;;;5066371;28;20051;-58
2022/04/11 10:52:33;;;;;;;0.40;0.40;;;;;;;;;;5075367;28;20028;-59
2022/04/11 10:55:05;;;;;;;0.30;0.30;;;;;;;;;;5053249;28;20110;-58
2022/04/11 10:57:35;;;;;;;0.47;0.47;;;;;;;;;;5075157;28;20045;-58
2022/04/11 11:00:07;;;;;;;0.20;0.20;;;;;;;;;;5064217;28;20036;-58
2022/04/11 11:02:54;;;;;;;0.20;0.20;;;;;;;;;;5077295;28;20043;-59
2022/04/11 11:05:30;;;;;;;0.20;0.20;;;;;;;;;;5079091;28;20040;-62
2022/04/11 11:08:14;;;;;;;0.30;0.30;;;;;;;;;;5087851;28;20035;-59
2022/04/11 11:10:49;;;;;;;0.30;0.30;;;;;;;;;;5064287;28;20060;-59
2022/04/11 11:13:30;;;;;;;0.20;0.20;;;;;;;;;;5078427;28;20394;-58
2022/04/11 11:16:00;;;;;;;0.30;0.30;;;;;;;;;;5087267;28;20044;-61
2022/04/11 11:18:28;;;;;;;0.20;0.20;;;;;;;;;;5087116;28;20496;-59
2022/04/11 11:20:56;;;;;;;0.20;0.20;;;;;;;;;;5087735;28;20066;-59
2022/04/11 11:23:31;;;;;;;0.20;0.20;;;;;;;;;;5085885;28;20032;-60
2022/04/11 11:26:08;;;;;;;0.50;0.50;;;;;;;;;;5067379;28;20039;-58
2022/04/11 11:28:33;;;;;;;0.20;0.20;;;;;;;;;;5067123;28;20028;-60
2022/04/11 11:31:00;;;;;;;0.30;0.30;;;;;;;;;;5066912;28;20123;-61
2022/04/11 11:33:26;;;;;;;0.30;0.30;;;;;;;;;;5085243;28;20032;-58
2022/04/11 11:35:53;;;;;;;0.28;0.28;;;;;;;;;;5084676;28;20031;-59
2022/04/11 11:38:23;;;;;;;0.20;0.20;;;;;;;;;;5086494;28;20055;-60
2022/04/11 11:40:53;;;;;;;0.20;0.20;;;;;;;;;;5080335;28;20032;-60
2022/04/11 11:43:23;;;;;;;0.30;0.30;;;;;;;;;;5078783;28;20032;-59
2022/04/11 11:45:50;;;;;;;0.38;0.38;;;;;;;;;;5069187;28;20093;-59
2022/04/11 11:48:23;;;;;;;0.20;0.20;;;;;;;;;;5047975;28;20487;-59
2022/04/11 11:50:49;;;;;;;0.20;0.20;;;;;;;;;;5048817;28;20037;-60
2022/04/11 11:53:15;;;;;;;0.40;0.40;;;;;;;;;;5070051;28;20089;-60
2022/04/11 11:55:54;;;;;;;0.28;0.28;;;;;;;;;;5081875;28;20052;-59
2022/04/11 11:58:20;;;;;;;0.38;0.38;;;;;;;;;;5082248;28;20029;-58
2022/04/11 12:00:49;;;;;;;0.32;0.32;;;;;;;;;;5077196;28;20036;-61
2022/04/11 12:06:01;;;;;;;0.30;0.30;;;;;;;;;;5066822;28;20044;-58
2022/04/11 12:08:30;;;;;;;0.30;0.30;;;;;;;;;;5057098;28;20054;-59
2022/04/11 12:11:00;;;;;;;0.20;0.20;;;;;;;;;;5070354;28;20089;-58
2022/04/11 12:13:30;;;;;;;0.20;0.20;;;;;;;;;;5071036;28;20044;-60
2022/04/11 12:16:09;;;;;;;0.30;0.30;;;;;;;;;;5073886;28;20040;-58
2022/04/11 12:18:51;;;;;;;0.30;0.30;;;;;;;;;;5069216;28;20028;-59
2022/04/11 12:21:17;;;;;;;0.30;0.30;;;;;;;;;;5070876;28;20051;-59
2022/04/11 12:23:45;;;;;;;0.30;0.30;;;;;;;;;;5075563;28;20024;-59
2022/04/11 12:26:11;;;;;;;0.30;0.30;;;;;;;;;;5078107;28;20107;-58
2022/04/11 12:28:37;;;;;;;0.30;0.30;;;;;;;;;;5053884;28;20444;-58
2022/04/11 12:31:03;;;;;;;0.20;0.20;;;;;;;;;;5072665;28;20115;-58
2022/04/11 12:33:29;;;;;;;0.30;0.30;;;;;;;;;;5081476;28;20028;-59
2022/04/11 12:36:04;;;;;;;0.30;0.30;;;;;;;;;;5080379;28;20086;-59
2022/04/11 12:38:38;;;;;;;0.38;0.38;;;;;;;;;;5066470;28;20428;-61
2022/04/11 12:41:04;;;;;;;0.30;0.30;;;;;;;;;;5065835;28;20047;-59
2022/04/11 12:43:30;;;;;;;0.20;0.20;;;;;;;;;;5085679;28;20028;-59
2022/04/11 12:46:05;;;;;;;0.30;0.30;;;;;;;;;;5086127;28;20379;-61
2022/04/11 12:48:34;;;;;;;;;;;;;;;;;;5085989;28;20050;-59
2022/04/11 12:51:09;;;;;;;0.30;0.30;;;;;;;;;;5080810;28;20431;-59
2022/04/11 12:53:35;;;;;;;0.30;0.30;;;;;;;;;;5074871;28;21135;-60
2022/04/11 12:56:07;;;;;;;2.30;1.58;;;;;;;;;;5086113;28;20094;-59
2022/04/11 12:58:37;;;;;;;0.40;0.40;;;;;;;;;;5079168;28;20078;-60
2022/04/11 13:01:02;;;;;;;0.25;0.25;;;;;;;;;;5076162;28;20058;-59
2022/04/11 13:03:30;;;;;;;0.20;0.20;;;;;;;;;;5074687;28;20033;-59
2022/04/11 13:05:57;;;;;;;0.30;0.30;;;;;;;;;;5077324;28;20036;-60
2022/04/11 13:08:24;;;;;;;0.30;0.30;;;;;;;;;;5072788;28;20044;-59
2022/04/11 13:10:49;;;;;;;3.10;0.65;;;;;;;;;;5053809;28;20040;-59
2022/04/11 13:13:15;;;;;;;0.80;0.80;;;;;;;;;;5071439;28;20033;-59
2022/04/11 13:18:23;;;;;;;0.30;0.30;;;;;;;;;;5076231;28;20032;-60
2022/04/11 13:18:26;;;;;;;0.30;0.30;;;;;;;;;;5070435;28;20040;-56
2022/04/11 13:20:52;;;;;;;0.28;0.28;;;;;;;;;;5069619;28;20050;-59
2022/04/11 13:23:18;;;;;;;0.30;0.30;;;;;;;;;;5070179;28;20111;-60
2022/04/11 13:25:43;;;;;;;0.25;0.25;;;;;;;;;;5069737;28;20045;-60
2022/04/11 13:28:12;;;;;;;0.32;0.32;;;;;;;;;;5069794;28;20056;-60
2022/04/11 13:30:37;;;;;;;0.27;0.27;;;;;;;;;;5051922;28;20035;-60
2022/04/11 13:33:03;;;;;;;0.25;0.25;;;;;;;;;;5052649;28;20036;-59
2022/04/11 13:35:28;;;;;;;0.57;0.57;;;;;;;;;;5070749;28;20218;-59
2022/04/11 13:37:54;;;;;;;0.28;0.28;;;;;;;;;;5070869;28;20032;-60
2022/04/11 13:40:19;;;;;;;0.30;0.30;;;;;;;;;;5070459;28;20067;-59
2022/04/11 13:42:45;;;;;;;0.20;0.20;;;;;;;;;;5070765;28;20368;-59
2022/04/11 13:45:10;;;;;;;0.28;0.28;;;;;;;;;;5036270;28;20423;-59
2022/04/11 13:47:36;;;;;;;2.22;0.50;;;;;;;;;;5070358;28;20037;-60
2022/04/11 13:50:02;;;;;;;0.55;0.55;;;;;;;;;;5070907;28;20047;-60
2022/04/11 13:52:27;;;;;;;0.45;0.45;;;;;;;;;;5070388;28;20041;-59
2022/04/11 13:54:53;;;;;;;0.20;0.20;;;;;;;;;;5052314;28;20384;-59
2022/04/11 13:57:18;;;;;;;0.30;0.30;;;;;;;;;;5070497;28;20044;-59
2022/04/11 13:59:43;;;;;;;0.30;0.30;;;;;;;;;;5069621;28;20107;-59
2022/04/11 14:02:12;;;;;;;0.30;0.30;;;;;;;;;;5068775;28;20094;-58
2022/04/11 14:04:38;;;;;;;0.20;0.20;;;;;;;;;;5070606;28;20571;-59
2022/04/11 14:07:04;;;;;;;0.20;0.20;;;;;;;;;;5071603;28;20029;-59
2022/04/11 14:09:30;;;;;;;0.20;0.20;;;;;;;;;;5085564;28;20024;-58
2022/04/11 14:11:56;;;;;;;0.30;0.30;;;;;;;;;;5072118;28;20043;-59
2022/04/11 14:14:22;;;;;;;0.30;0.22;;;;;;;;;;5090009;28;20085;-59
2022/04/11 14:16:48;;;;;;;7.68;1.23;;;;;;;;;;5072108;28;20036;-59
2022/04/11 14:19:13;;;;;;;0.38;0.38;;;;;;;;;;5090148;28;20073;-59
2022/04/11 14:21:38;;;;;;;0.30;0.30;;;;;;;;;;5090257;28;20036;-58
2022/04/11 14:24:04;;;;;;;0.20;0.20;;;;;;;;;;5089457;28;20119;-59
2022/04/11 14:26:30;;;;;;;0.30;0.30;;;;;;;;;;5080888;28;20085;-59
2022/04/11 14:28:55;;;;;;;0.40;0.40;;;;;;;;;;5090129;28;20439;-59
2022/04/11 14:31:20;;;;;;;0.35;0.35;;;;;;;;;;5090068;28;20119;-59
2022/04/11 14:33:46;;;;;;;0.30;0.30;;;;;;;;;;5089730;28;20484;-58
2022/04/11 14:36:12;;;;;;;0.30;0.30;;;;;;;;;;5080869;28;20044;-59
2022/04/11 14:38:39;;;;;;;0.43;0.38;;;;;;;;;;5070124;28;20063;-58
2022/04/11 14:41:06;;;;;;;0.30;0.30;;;;;;;;;;5069753;28;20052;-58
2022/04/11 14:43:33;;;;;;;0.30;0.30;;;;;;;;;;5073941;28;20378;-60
2022/04/11 14:45:58;;;;;;;0.30;0.30;;;;;;;;;;5078614;28;20028;-60
2022/04/11 14:48:25;;;;;;;0.25;0.25;;;;;;;;;;5089495;28;20040;-59